Logo AVAMET
Benvolgut visitant, si us plau, ingressa Recuperar contrasenya
AVAMET paisatges

Inforatge Castelló de la Plana Palau Festa

Dades diàries. Acumulats / Últims 30 dies disponibles

Data Temperatura (°C) Humitat rel. (%) Pressió rel. (hPa) Vent (km/h) Precipitació
Mínima Mitjana Màxima Amplitud
tèrmica
Mínima Mitjana Màxima Mínima Mitjana Màxima Predom. Mitjana Ràfega
màxima
Total
(mm)
Índex-n
Mínima Mitjana Màxima Mínima Mitjana Màxima n
0 a 1
P0 max
mm 5'
Dades mensuals acumulades fins l'últim dia disponible
07/2020 22,7 23,6 24,4 26,0 28,1 28,4 28,7 6,0 66 76 85 1.010 1.013 1.016   7,9 33,8 0,0
Dades anuals acumulades fins l'últim dia disponible
2020 4,3 13,2 24,4 16,6 10,4 20,2 30,4 26,1 0 70 94 0 995 1.035   6,6 88,5 469,6
Últims 30 dies disponibles
02-07-2020 24,4     26,1     28,1 3,7 69 77 85 1.012 1.014 1.016 ENE 10,0 33,8 0,0
01-07-2020 22,7     25,9     28,7 6,0 66 75 85 1.010 1.011 1.013 E 5,8 25,7 0,0
30-06-2020 23,2     25,5     28,1 4,9 68 77 85 1.012 1.015 1.016 SE 5,3 24,1 0,0
29-06-2020 22,3     25,1     27,2 4,9 71 79 86 1.015 1.016 1.017 E 6,1 30,6 0,0
28-06-2020 21,9     25,1     27,6 5,7 69 74 82 1.016 1.017 1.019 E 5,3 24,1 0,0
27-06-2020 22,0     25,4     27,9 5,9 57 68 79 1.014 1.015 1.016 E 5,6 20,9 0,0
26-06-2020 20,9     25,6     29,4 8,5 41 58 75 1.013 1.015 1.017 SE 5,8 25,7 0,0
25-06-2020 21,1     25,1     28,6 7,5 48 64 76 1.015 1.016 1.019 E 5,8 22,5 0,0
24-06-2020 20,1     24,1     27,3 7,2 59 72 82 1.016 1.018 1.019 SSW 5,3 27,4 0,0
23-06-2020 20,9     23,9     26,4 5,5 65 74 82 1.017 1.019 1.021 SE 7,1 30,6 0,0
22-06-2020 21,8     24,6     27,2 5,4 57 71 88 1.019 1.021 1.023 SSE 8,4 30,6 0,0
21-06-2020 20,7     23,5     26,1 5,4 68 79 89 1.020 1.021 1.022 E 4,8 20,9 0,0
20-06-2020 19,8     22,8     25,2 5,4 71 80 87 1.020 1.021 1.022 E 5,5 22,5 0,0
19-06-2020 19,5     21,4     23,9 4,4 73 80 85 1.017 1.019 1.021 ENE 5,5 24,1 0,0
18-06-2020 18,6     20,8     22,8 4,2 66 75 79 1.014 1.015 1.017 ENE 8,7 38,6 0,0
17-06-2020 17,9     20,7     22,9 5,0 66 73 81 1.015 1.016 1.018 ENE 6,4 29,0 0,0
16-06-2020 18,4     20,8     23,3 4,9 71 78 85 1.016 1.017 1.019 ENE 8,2 40,2 2,0 0,20
15-06-2020 19,2     21,9     24,4 5,2 62 75 85 1.018 1.019 1.020 ENE 7,9 29,0 0,0
14-06-2020 17,7     21,6     24,3 6,6 52 68 76 1.016 1.017 1.019 ENE 7,2 30,6 0,0
13-06-2020 18,7     22,6     25,7 7,0 37 50 75 1.008 1.012 1.017 W 10,9 37,0 0,0
12-06-2020 20,2     24,3     28,6 8,4 28 44 83 1.002 1.004 1.008 S 13,2 56,3 0,0
11-06-2020 18,9     22,2     26,1 7,2 56 71 81 1.001 1.007 1.014 SSE 11,1 62,8 0,0
10-06-2020 15,8     20,1     22,7 6,9 44 62 74 1.014 1.016 1.018 W 7,6 29,0 0,0
09-06-2020 15,3     19,5     22,9 7,6 44 62 77 1.015 1.016 1.018 W 8,4 29,0 0,0
08-06-2020 16,5     18,4     20,6 4,1 53 67 83 1.011 1.013 1.016 SSE 6,4 32,2 0,4
07-06-2020 15,9     20,5     24,5 8,6 63 79 88 1.005 1.008 1.013 NNE 6,9 41,8 38,2 0,85 7,50
06-06-2020 17,9     21,9     24,8 6,9 65 73 85 1.005 1.009 1.012 E 6,3 25,7 0,0
05-06-2020 15,2     21,1     24,6 9,4 44 62 78 1.008 1.010 1.012 SE 7,2 27,4 0,0
04-06-2020 14,4     19,8     23,9 9,5 58 77 88 1.003 1.005 1.008 ENE 3,9 41,8 22,0 0,04 7,60
03-06-2020 19,3     22,6     25,6 6,3 57 74 82 1.003 1.009 1.014 SE 7,2 35,4 0,0
Últims 13 mesos disponibles
06/2020 14,4 19,1 23,2 22,5 20,6 25,4 29,4 15,0 44 70 80 1.004 1.015 1.021 E 7,0 62,8 62,6
05/2020 13,7 17,0 19,9 20,7 18,3 24,1 30,4 16,7 50 70 79 1.005 1.017 1.028 E 6,7 54,7 33,4
04/2020 8,6 13,0 16,6 15,8 15,3 19,1 27,8 19,2 51 76 87 1.005 1.016 1.026 E 6,0 43,5 162,2
03/2020 6,4 10,7 15,6 14,1 11,7 17,4 24,8 18,4 43 69 89 975 1.016 1.027 ENE 8,5 88,5 129,6
02/2020 7,4 10,5 13,9 14,1 14,1 18,4 25,7 18,3 52 73 83 1.017 1.026 1.033 W 4,4 35,4 0,0
01/2020 4,3 8,2 13,2 11,7 10,4 16,0 22,5 18,2 61 73 86 1.014 1.018 1.027 W 6,4 75,6 81,8
12/2019 6,7 10,9 17,7 14,2 13,4 17,9 25,8 19,1 45 70 85 1.014 1.014 1.014 W 6,8 72,4 157,0
11/2019 7,8 12,0 20,2 15,8 15,3 20,0 27,7 19,9 39 54 76 1.014 1.014 1.014 W 8,0 61,2 4,8
10/2019 10,8 16,9 22,1 20,3 17,3 24,0 28,2 17,4 48 70 82 1.014 1.014 1.014 S 6,0 53,1 19,8
09/2019 15,3 20,7 23,9 23,7 21,9 26,8 30,6 15,3 50 70 82 1.014 1.015 1.016 SE 7,7 56,3 65,6
08/2019 18,5 22,7 26,4 25,9 25,7 29,0 31,9 13,4 54 72 79 1.016 1.016 1.016 S 6,7 61,1 17,8
07/2019 21,6 23,1 25,3 26,5 27,1 29,4 33,2 11,6 49 67 78 1.016 1.016 1.016 SE 7,1 51,9 8,6
06/2019 12,8 18,9 23,1 22,4 20,7 25,8 35,9 23,1 41 64 79 1.016 1.016 1.016 S 8,1 59,6 0,0
Tots els anys disponibles
2019 2,3 14,8 26,4 18,4 12,7 22,2 35,9 33,6 28 65 85 1.014 1.016 1.016 S 7,4 79,6 341,6
Temperatura (°C)
Humitat relativa (%)
Velocitat del vent i ràfega màxima (km/h)
Direcció del vent (°)
Pressió (hPa)
Precipitació (mm)
Nota sobre les dades: s'avisa a l'usuari de la provisionalitat i no oficialitat d'aquestes dades
Logo AVAMET blanc
Web allotjada a Sollutia
Llicència de Creative CommonsLa web d'AVAMET i els seus continguts estan subjectes a una llicència de
Reconeixement - No Comercial - Compartir igual
Últimes estacions: la Vilavella - Ptda Forns (Soci), Miramar - Platja (Inforatge), San Fulgencio - Centre & San Fulgencio - Urb. La Marina (MeteOrihuela), Ontinyent - els Gínjols (Soci), Orba (Ajuntament Soci), Xixona - Monnegre de Baix (Soci), Benifairó de la Valldigna - Cambro/Pator (Soci) - - -